createdAt,value
2017-07-30T00:01:55.139Z,2.40
2017-07-30T00:04:23.442Z,2.50
2017-07-30T00:06:50.950Z,2.33
2017-07-30T00:09:18.484Z,2.53
2017-07-30T00:11:46.002Z,2.60
2017-07-30T00:14:13.520Z,2.53
2017-07-30T00:16:41.063Z,2.70
2017-07-30T00:19:08.568Z,2.53
2017-07-30T00:21:36.078Z,2.40
2017-07-30T00:24:03.622Z,3.00
2017-07-30T00:26:31.124Z,2.53
2017-07-30T00:28:59.402Z,3.00
2017-07-30T00:31:27.702Z,2.83
2017-07-30T00:33:55.224Z,2.60
2017-07-30T00:36:22.732Z,2.20
2017-07-30T00:38:50.255Z,2.63
2017-07-30T00:41:18.544Z,2.50
2017-07-30T00:43:46.814Z,2.20
2017-07-30T00:46:15.104Z,2.77
2017-07-30T00:48:42.694Z,2.10
2017-07-30T00:51:10.205Z,2.50
2017-07-30T00:53:38.619Z,2.83
2017-07-30T00:56:06.120Z,3.03
2017-07-30T00:58:33.620Z,2.30
2017-07-30T01:01:01.144Z,2.57
2017-07-30T01:03:28.662Z,2.93
2017-07-30T01:05:56.164Z,2.90
2017-07-30T01:08:23.687Z,2.43
2017-07-30T01:10:51.193Z,2.33
2017-07-30T01:13:19.470Z,2.80
2017-07-30T01:15:47.761Z,2.57
2017-07-30T01:18:15.277Z,2.27
2017-07-30T01:20:42.777Z,2.90
2017-07-30T01:23:10.366Z,2.43
2017-07-30T01:25:37.865Z,2.63
2017-07-30T01:28:05.374Z,2.97
2017-07-30T01:30:32.913Z,2.00
2017-07-30T01:33:00.434Z,2.13
2017-07-30T01:35:27.941Z,2.50
2017-07-30T01:37:55.482Z,2.50
2017-07-30T01:40:23.007Z,3.20
2017-07-30T01:42:50.518Z,3.10
2017-07-30T01:45:18.059Z,3.07
2017-07-30T01:47:45.574Z,2.80
2017-07-30T01:50:13.095Z,3.00
2017-07-30T01:52:40.632Z,3.50
2017-07-30T01:55:08.145Z,3.37
2017-07-30T01:57:35.641Z,2.80
2017-07-30T02:00:03.936Z,2.97
2017-07-30T02:02:31.456Z,2.97
2017-07-30T02:04:58.955Z,4.00
2017-07-30T02:07:26.480Z,3.57
2017-07-30T02:09:54.766Z,4.07
2017-07-30T02:12:23.074Z,3.90
2017-07-30T02:14:50.606Z,3.47
2017-07-30T02:17:18.872Z,2.80
2017-07-30T02:19:47.154Z,3.40
2017-07-30T02:22:15.448Z,3.40
2017-07-30T02:24:42.951Z,3.67
2017-07-30T02:27:10.459Z,3.63
2017-07-30T02:29:37.992Z,5.47
2017-07-30T02:32:06.315Z,5.03
2017-07-30T02:34:33.838Z,6.37
2017-07-30T02:37:02.137Z,6.47
2017-07-30T02:39:29.708Z,6.13
2017-07-30T02:41:57.216Z,7.77
2017-07-30T02:44:24.827Z,8.30
2017-07-30T02:46:52.336Z,6.07
2017-07-30T02:49:19.863Z,7.60
2017-07-30T02:51:47.392Z,8.50
2017-07-30T02:54:14.901Z,6.50
2017-07-30T02:56:42.416Z,7.13
2017-07-30T02:59:09.948Z,5.83
2017-07-30T03:01:38.236Z,5.70
2017-07-30T03:04:05.754Z,6.10
2017-07-30T03:06:33.298Z,6.80
2017-07-30T03:09:00.809Z,6.97
2017-07-30T03:11:28.317Z,5.60
2017-07-30T03:13:55.948Z,3.93
2017-07-30T03:16:23.456Z,6.00
2017-07-30T03:18:50.979Z,4.93
2017-07-30T03:21:18.527Z,4.37
2017-07-30T03:23:46.046Z,4.00
2017-07-30T03:29:05.261Z,3.47
2017-07-30T03:31:32.786Z,4.80
2017-07-30T03:34:01.085Z,4.23
2017-07-30T03:36:28.803Z,5.27
2017-07-30T03:38:56.348Z,4.00
2017-07-30T03:41:23.881Z,3.90
2017-07-30T03:43:51.430Z,4.20
2017-07-30T03:46:18.975Z,3.33
2017-07-30T03:48:46.934Z,3.33
2017-07-30T03:51:15.279Z,2.93
2017-07-30T03:53:42.831Z,3.17
2017-07-30T03:56:10.364Z,3.23
2017-07-30T03:58:37.925Z,3.70
2017-07-30T04:01:05.442Z,3.70
2017-07-30T04:03:33.742Z,4.90
2017-07-30T04:06:01.309Z,4.47
2017-07-30T04:08:28.848Z,3.87
2017-07-30T04:10:56.390Z,4.67
2017-07-30T04:13:24.812Z,4.40
2017-07-30T04:15:52.326Z,4.73
2017-07-30T04:18:20.625Z,4.80
2017-07-30T04:20:48.185Z,4.27
2017-07-30T04:23:15.739Z,4.90
2017-07-30T04:25:43.322Z,4.90
2017-07-30T04:28:10.885Z,4.77
2017-07-30T04:30:38.441Z,4.53
2017-07-30T04:33:06.030Z,5.00
2017-07-30T04:35:33.595Z,4.80
2017-07-30T04:38:01.147Z,4.40
2017-07-30T04:40:28.670Z,5.10
2017-07-30T04:42:56.244Z,5.30
2017-07-30T04:45:23.767Z,5.23
2017-07-30T04:47:52.069Z,6.10
2017-07-30T04:50:19.630Z,5.40
2017-07-30T04:52:47.173Z,5.47
2017-07-30T04:55:14.706Z,6.17
2017-07-30T04:57:43.033Z,5.10
2017-07-30T05:00:10.552Z,4.90
2017-07-30T05:02:38.862Z,5.20
2017-07-30T05:05:06.439Z,5.80
2017-07-30T05:07:33.991Z,6.00
2017-07-30T05:10:01.539Z,5.13
2017-07-30T05:12:29.104Z,5.93
2017-07-30T05:14:56.656Z,6.57
2017-07-30T05:17:24.206Z,5.30
2017-07-30T05:19:51.764Z,5.70
2017-07-30T05:22:19.315Z,5.93
2017-07-30T05:24:46.875Z,5.97
2017-07-30T05:27:14.445Z,6.17
2017-07-30T05:29:41.981Z,5.20
2017-07-30T05:32:10.279Z,5.30
2017-07-30T05:34:37.838Z,4.40
2017-07-30T05:37:05.377Z,5.20
2017-07-30T05:39:32.913Z,5.50
2017-07-30T05:42:00.477Z,5.30
2017-07-30T05:44:28.785Z,5.00
2017-07-30T05:46:56.314Z,4.93
2017-07-30T05:49:24.655Z,4.50
2017-07-30T05:51:52.194Z,5.37
2017-07-30T05:54:19.729Z,3.77
2017-07-30T05:56:47.283Z,5.30
2017-07-30T05:59:15.596Z,3.63
2017-07-30T06:01:43.133Z,3.90
2017-07-30T06:04:10.680Z,3.40
2017-07-30T06:06:38.225Z,3.60
2017-07-30T06:09:06.529Z,3.13
2017-07-30T06:11:34.107Z,3.97
2017-07-30T06:14:01.626Z,3.80
2017-07-30T06:16:29.936Z,3.23
2017-07-30T06:18:57.496Z,3.07
2017-07-30T06:21:25.033Z,3.57
2017-07-30T06:23:52.577Z,2.97
2017-07-30T06:26:20.901Z,3.50
2017-07-30T06:28:48.553Z,3.90
2017-07-30T06:31:16.093Z,2.97
2017-07-30T06:33:43.658Z,3.00
2017-07-30T06:36:11.203Z,2.37
2017-07-30T06:38:38.741Z,3.00
2017-07-30T06:41:06.315Z,3.03
2017-07-30T06:43:34.602Z,3.17
2017-07-30T06:46:02.123Z,3.03
2017-07-30T06:48:29.699Z,3.20
2017-07-30T06:50:58.001Z,3.23
2017-07-30T06:53:25.537Z,3.47
2017-07-30T06:55:53.852Z,3.10
2017-07-30T06:58:21.399Z,3.13
2017-07-30T07:00:48.936Z,2.60
2017-07-30T07:03:17.247Z,3.20
2017-07-30T07:05:44.785Z,2.83
2017-07-30T07:08:12.307Z,4.00
2017-07-30T07:10:39.851Z,2.77
2017-07-30T07:13:07.385Z,3.17
2017-07-30T07:15:35.130Z,3.70
2017-07-30T07:18:02.772Z,3.30
2017-07-30T07:20:30.323Z,3.37
2017-07-30T07:22:57.842Z,2.90
2017-07-30T07:25:26.169Z,3.27
2017-07-30T07:27:53.708Z,3.23
2017-07-30T07:30:21.267Z,3.67
2017-07-30T07:32:48.825Z,3.80
2017-07-30T07:35:16.373Z,3.30
2017-07-30T07:37:43.924Z,3.17
2017-07-30T07:40:12.249Z,2.80
2017-07-30T07:42:39.802Z,2.90
2017-07-30T07:45:07.341Z,2.53
2017-07-30T07:47:34.883Z,3.43
2017-07-30T07:50:03.180Z,3.10
2017-07-30T07:52:30.731Z,2.50
2017-07-30T07:54:58.301Z,2.70
2017-07-30T07:57:25.837Z,2.40
2017-07-30T07:59:54.119Z,2.50
2017-07-30T08:02:21.677Z,2.17
2017-07-30T08:04:49.213Z,2.53
2017-07-30T08:07:17.517Z,2.40
2017-07-30T08:09:45.063Z,2.53
2017-07-30T08:12:13.360Z,2.23
2017-07-30T08:14:40.909Z,2.33
2017-07-30T08:17:08.487Z,2.13
2017-07-30T08:19:36.039Z,2.30
2017-07-30T08:22:03.577Z,2.00
2017-07-30T08:24:31.901Z,2.17
2017-07-30T08:26:59.441Z,2.57
2017-07-30T08:29:26.976Z,2.60
2017-07-30T08:31:55.384Z,2.10
2017-07-30T08:34:22.902Z,2.40
2017-07-30T08:36:51.223Z,1.90
2017-07-30T08:39:18.778Z,2.30
2017-07-30T08:41:46.313Z,2.40
2017-07-30T08:44:13.872Z,1.93
2017-07-30T08:46:41.471Z,1.90
2017-07-30T08:49:09.009Z,2.00
2017-07-30T08:51:36.553Z,2.10
2017-07-30T08:54:04.126Z,1.70
2017-07-30T08:56:31.677Z,2.20
2017-07-30T08:58:59.239Z,1.60
2017-07-30T09:01:26.805Z,1.93
2017-07-30T09:03:54.355Z,1.50
2017-07-30T09:06:21.902Z,2.20
2017-07-30T09:08:49.474Z,1.87
2017-07-30T09:11:17.035Z,1.90
2017-07-30T09:13:44.559Z,2.40
2017-07-30T09:16:12.874Z,2.03
2017-07-30T09:18:40.413Z,2.27
2017-07-30T09:21:07.942Z,1.80
2017-07-30T09:23:35.500Z,2.20
2017-07-30T09:26:03.037Z,2.00
2017-07-30T09:28:30.590Z,2.30
2017-07-30T09:30:58.167Z,1.63
2017-07-30T09:33:25.709Z,1.63
2017-07-30T09:35:53.249Z,1.67
2017-07-30T09:38:20.809Z,1.87
2017-07-30T09:40:48.363Z,2.23
2017-07-30T09:43:15.895Z,1.60
2017-07-30T09:45:44.243Z,2.00
2017-07-30T09:48:11.778Z,2.13
2017-07-30T09:50:39.299Z,2.00
2017-07-30T09:53:06.843Z,1.70
2017-07-30T09:55:35.141Z,2.10
2017-07-30T09:58:02.704Z,2.10
2017-07-30T10:00:30.258Z,2.20
2017-07-30T10:05:48.742Z,2.27
2017-07-30T10:13:59.442Z,1.50
2017-07-30T10:16:26.958Z,1.77
2017-07-30T10:18:54.461Z,2.10
2017-07-30T10:21:22.025Z,1.90
2017-07-30T10:23:49.542Z,1.67
2017-07-30T10:26:17.818Z,1.97
2017-07-30T10:28:46.127Z,1.50
2017-07-30T10:31:13.641Z,1.60
2017-07-30T10:33:41.150Z,1.60
2017-07-30T10:36:08.671Z,1.70
2017-07-30T10:38:36.955Z,1.27
2017-07-30T10:41:05.224Z,1.70
2017-07-30T10:43:32.776Z,1.57
2017-07-30T10:46:00.276Z,2.53
2017-07-30T10:48:27.776Z,1.40
2017-07-30T10:50:55.318Z,1.57
2017-07-30T10:53:22.829Z,1.73
2017-07-30T10:55:50.411Z,1.57
2017-07-30T10:58:17.988Z,1.73
2017-07-30T11:00:45.487Z,2.10
2017-07-30T11:03:13.756Z,1.43
2017-07-30T11:05:42.066Z,1.43
2017-07-30T11:11:01.054Z,1.70
2017-07-30T11:13:28.602Z,1.40
2017-07-30T11:15:56.161Z,1.53
2017-07-30T11:18:23.733Z,1.80
2017-07-30T11:20:51.282Z,1.57
2017-07-30T11:26:10.365Z,1.60
2017-07-30T11:28:37.864Z,2.07
2017-07-30T11:31:05.392Z,1.87
2017-07-30T11:33:32.934Z,2.00
2017-07-30T11:36:00.457Z,1.53
2017-07-30T11:38:27.955Z,1.93
2017-07-30T11:40:55.494Z,1.57
2017-07-30T11:43:23.759Z,1.77
2017-07-30T11:45:52.027Z,1.80
2017-07-30T11:48:19.552Z,1.93
2017-07-30T11:50:47.070Z,1.60
2017-07-30T11:56:05.984Z,1.60
2017-07-30T11:58:33.530Z,1.80
2017-07-30T12:01:01.046Z,1.47
2017-07-30T12:03:29.359Z,1.80
2017-07-30T12:05:56.867Z,1.60
2017-07-30T12:08:24.390Z,1.60
2017-07-30T12:10:51.945Z,1.90
2017-07-30T12:13:19.456Z,2.30
2017-07-30T12:15:47.747Z,1.83
2017-07-30T12:18:15.280Z,1.83
2017-07-30T12:20:42.788Z,2.20
2017-07-30T12:23:10.310Z,2.07
2017-07-30T12:25:38.759Z,1.90
2017-07-30T12:28:06.264Z,2.23
2017-07-30T12:30:34.002Z,1.90
2017-07-30T12:33:02.315Z,1.93
2017-07-30T12:35:29.830Z,2.00
2017-07-30T12:37:57.350Z,2.37
2017-07-30T12:40:24.897Z,2.17
2017-07-30T12:42:52.462Z,1.87
2017-07-30T12:45:19.971Z,2.13
2017-07-30T12:47:48.287Z,1.80
2017-07-30T12:50:15.807Z,2.30
2017-07-30T12:52:44.965Z,1.70
2017-07-30T12:55:12.612Z,2.10
2017-07-30T12:57:40.134Z,2.40
2017-07-30T13:00:07.935Z,2.03
2017-07-30T13:02:35.463Z,2.53
2017-07-30T13:05:03.745Z,1.93
2017-07-30T13:07:31.274Z,2.20
2017-07-30T13:09:58.817Z,2.20
2017-07-30T13:12:26.320Z,2.17
2017-07-30T13:14:53.842Z,2.40
2017-07-30T13:17:21.387Z,2.27
2017-07-30T13:19:48.906Z,2.00
2017-07-30T13:22:16.426Z,2.40
2017-07-30T13:24:43.993Z,2.20
2017-07-30T13:27:12.270Z,2.07
2017-07-30T13:29:40.550Z,2.30
2017-07-30T13:32:08.845Z,1.60
2017-07-30T13:34:36.362Z,1.60
2017-07-30T13:37:04.188Z,1.70
2017-07-30T13:39:32.057Z,2.10
2017-07-30T13:42:00.127Z,1.57
2017-07-30T13:44:27.631Z,1.83
2017-07-30T13:46:55.181Z,1.50
2017-07-30T13:49:28.630Z,1.83
2017-07-30T13:52:02.158Z,2.00
2017-07-30T13:54:35.503Z,1.90
2017-07-30T13:57:08.881Z,2.10
2017-07-30T13:59:44.138Z,1.70
2017-07-30T14:02:18.102Z,1.50
2017-07-30T14:04:52.551Z,2.20
2017-07-30T14:07:27.414Z,2.30
2017-07-30T14:12:59.060Z,1.90
2017-07-30T14:15:33.708Z,1.60
2017-07-30T14:18:08.881Z,2.20
2017-07-30T14:20:43.017Z,2.40
2017-07-30T14:23:17.607Z,2.13
2017-07-30T14:25:51.638Z,2.40
2017-07-30T14:28:26.361Z,1.50
2017-07-30T14:31:00.387Z,2.17
2017-07-30T14:33:34.369Z,2.20
2017-07-30T14:36:08.731Z,2.27
2017-07-30T14:38:43.514Z,1.67
2017-07-30T14:41:18.116Z,1.67
2017-07-30T14:43:52.185Z,1.83
2017-07-30T14:46:25.639Z,1.97
2017-07-30T14:48:59.176Z,1.40
2017-07-30T14:51:32.675Z,1.80
2017-07-30T14:54:06.057Z,1.80
2017-07-30T14:56:49.634Z,1.70
2017-07-30T14:59:23.365Z,1.93
2017-07-30T15:04:55.108Z,1.13
2017-07-30T15:07:28.730Z,1.13
2017-07-30T15:10:02.705Z,1.47
2017-07-30T15:15:34.205Z,1.47
2017-07-30T15:18:07.942Z,1.50
2017-07-30T15:20:42.460Z,1.60
2017-07-30T15:23:17.390Z,1.30
2017-07-30T15:25:51.405Z,1.97
2017-07-30T15:46:16.639Z,1.30
2017-07-30T15:51:47.436Z,1.40
2017-07-30T15:54:21.959Z,1.40
2017-07-30T15:56:56.072Z,1.30
2017-07-30T15:59:29.707Z,1.20
2017-07-30T16:02:05.072Z,1.50
2017-07-30T16:07:36.711Z,1.20
2017-07-30T16:10:11.318Z,1.30
2017-07-30T16:12:45.682Z,1.63
2017-07-30T16:18:16.825Z,1.53
2017-07-30T16:20:50.503Z,1.30
2017-07-30T16:23:24.355Z,1.50
2017-07-30T16:25:58.857Z,1.53
2017-07-30T16:28:33.719Z,1.80
2017-07-30T16:34:05.658Z,1.50
2017-07-30T16:36:40.166Z,1.30
2017-07-30T16:39:14.432Z,1.57
2017-07-30T16:41:48.047Z,1.53
2017-07-30T16:44:21.768Z,1.43
2017-07-30T16:46:56.354Z,1.60
2017-07-30T16:49:30.959Z,1.80
2017-07-30T16:52:05.648Z,1.47
2017-07-30T16:54:39.610Z,1.40
2017-07-30T16:57:15.019Z,1.57
2017-07-30T16:59:49.183Z,1.40
2017-07-30T17:02:23.735Z,1.47
2017-07-30T17:04:58.614Z,1.80
2017-07-30T17:07:32.438Z,1.60
2017-07-30T17:10:06.929Z,1.50
2017-07-30T17:12:40.845Z,1.70
2017-07-30T17:15:15.452Z,2.57
2017-07-30T17:17:49.372Z,1.57
2017-07-30T17:20:22.957Z,1.80
2017-07-30T17:22:56.846Z,1.87
2017-07-30T17:25:31.452Z,2.17
2017-07-30T17:28:05.152Z,1.53
2017-07-30T17:30:39.815Z,2.00
2017-07-30T17:33:13.554Z,1.80
2017-07-30T17:35:48.070Z,1.63
2017-07-30T17:38:22.081Z,1.60
2017-07-30T17:40:56.594Z,2.07
2017-07-30T17:43:30.479Z,1.50
2017-07-30T17:46:04.328Z,1.80
2017-07-30T17:48:38.868Z,1.70
2017-07-30T17:51:12.506Z,1.80
2017-07-30T17:53:46.288Z,2.10
2017-07-30T17:56:20.175Z,3.37
2017-07-30T17:58:54.532Z,1.93
2017-07-30T18:01:29.295Z,2.90
2017-07-30T18:04:04.092Z,1.60
2017-07-30T18:06:38.940Z,1.20
2017-07-30T18:09:12.883Z,1.00
2017-07-30T18:11:47.294Z,1.47
2017-07-30T18:14:21.173Z,1.27
2017-07-30T18:16:55.832Z,1.10
2017-07-30T18:19:29.707Z,1.30
2017-07-30T18:22:03.408Z,1.03
2017-07-30T18:24:37.934Z,1.20
2017-07-30T18:30:13.144Z,1.00
2017-07-30T18:35:43.973Z,1.33
2017-07-30T18:38:18.543Z,1.10
2017-07-30T18:40:52.243Z,1.20
2017-07-30T18:43:26.721Z,1.23
2017-07-30T18:46:00.567Z,1.33
2017-07-30T18:48:35.203Z,1.40
2017-07-30T18:51:09.068Z,1.00
2017-07-30T18:53:42.803Z,1.07
2017-07-30T18:56:17.296Z,1.53
2017-07-30T18:58:51.251Z,1.93
2017-07-30T19:01:25.029Z,0.93
2017-07-30T19:03:59.487Z,1.50
2017-07-30T19:06:34.269Z,1.20
2017-07-30T19:09:08.119Z,1.70
2017-07-30T19:11:42.627Z,1.47
2017-07-30T19:14:16.464Z,1.90
2017-07-30T19:16:50.169Z,1.70
2017-07-30T19:19:24.673Z,1.60
2017-07-30T19:21:58.747Z,1.50
2017-07-30T19:24:33.345Z,1.37
2017-07-30T19:27:07.225Z,1.40
2017-07-30T19:29:41.757Z,1.53
2017-07-30T19:32:16.197Z,1.50
2017-07-30T19:34:50.154Z,1.83
2017-07-30T19:37:23.916Z,1.43
2017-07-30T19:39:58.297Z,2.20
2017-07-30T19:42:32.254Z,1.80
2017-07-30T19:45:06.712Z,1.80
2017-07-30T19:47:41.060Z,1.50
2017-07-30T19:50:15.684Z,1.20
2017-07-30T19:52:49.737Z,2.20
2017-07-30T19:55:25.261Z,2.37
2017-07-30T19:57:58.948Z,2.50
2017-07-30T20:00:34.269Z,2.33
2017-07-30T20:03:08.242Z,1.87
2017-07-30T20:05:42.584Z,2.03
2017-07-30T20:08:16.663Z,1.93
2017-07-30T20:10:51.307Z,1.90
2017-07-30T20:13:26.712Z,2.40
2017-07-30T20:16:00.610Z,3.13
2017-07-30T20:18:35.140Z,1.40
2017-07-30T20:21:09.714Z,1.40
2017-07-30T20:23:44.037Z,1.93
2017-07-30T20:26:19.408Z,1.60
2017-07-30T20:28:53.525Z,1.50
2017-07-30T20:31:28.056Z,1.80
2017-07-30T20:34:02.724Z,1.60
2017-07-30T20:36:36.424Z,2.03
2017-07-30T20:39:10.265Z,2.10
2017-07-30T20:41:44.009Z,1.93
2017-07-30T20:44:18.507Z,2.33
2017-07-30T20:46:52.684Z,1.87
2017-07-30T20:49:27.247Z,1.50
2017-07-30T20:52:01.778Z,1.40
2017-07-30T20:54:35.649Z,2.17
2017-07-30T20:57:09.283Z,1.80
2017-07-30T20:59:43.155Z,1.70
2017-07-30T21:02:17.695Z,1.60
2017-07-30T21:04:52.219Z,2.07
2017-07-30T21:07:26.265Z,2.00
2017-07-30T21:10:00.905Z,1.60
2017-07-30T21:12:34.558Z,1.70
2017-07-30T21:15:09.798Z,1.70
2017-07-30T21:17:43.801Z,1.30
2017-07-30T21:20:17.533Z,1.70
2017-07-30T21:22:52.068Z,1.70
2017-07-30T21:25:27.507Z,1.70
2017-07-30T21:28:01.379Z,1.80
2017-07-30T21:30:35.951Z,1.60
2017-07-30T21:33:09.740Z,2.30
2017-07-30T21:35:44.432Z,1.50
2017-07-30T21:38:19.073Z,1.63
2017-07-30T21:40:52.959Z,1.80
2017-07-30T21:43:26.603Z,1.77
2017-07-30T21:46:01.950Z,1.97
2017-07-30T21:48:35.790Z,1.70
2017-07-30T21:51:09.509Z,1.90
2017-07-30T21:53:43.125Z,1.90
2017-07-30T21:56:17.753Z,2.20
2017-07-30T21:58:52.289Z,1.73
2017-07-30T22:01:26.122Z,2.50
2017-07-30T22:03:59.815Z,2.50
2017-07-30T22:06:34.451Z,2.60
2017-07-30T22:09:08.379Z,2.07
2017-07-30T22:11:42.981Z,1.93
2017-07-30T22:14:17.091Z,2.13
2017-07-30T22:16:51.695Z,2.57
2017-07-30T22:19:25.745Z,2.10
2017-07-30T22:22:00.264Z,2.10
2017-07-30T22:24:34.841Z,2.00
2017-07-30T22:27:08.824Z,2.30
2017-07-30T22:29:43.277Z,2.00
2017-07-30T22:32:17.303Z,1.87
2017-07-30T22:34:51.713Z,3.23
2017-07-30T22:37:26.456Z,1.63
2017-07-30T22:40:00.591Z,2.00
2017-07-30T22:42:34.256Z,1.87
2017-07-30T22:45:08.011Z,1.70
2017-07-30T22:47:42.513Z,2.30
2017-07-30T22:50:17.093Z,1.60
2017-07-30T22:52:51.949Z,1.97
2017-07-30T22:55:25.738Z,1.53
2017-07-30T22:57:59.566Z,1.67
2017-07-30T23:00:33.951Z,1.50
2017-07-30T23:03:08.149Z,1.93
2017-07-30T23:05:42.805Z,2.00
2017-07-30T23:08:16.815Z,2.83
2017-07-30T23:10:51.350Z,2.40
2017-07-30T23:13:24.959Z,2.37
2017-07-30T23:15:58.757Z,2.37
2017-07-30T23:18:32.478Z,2.20
2017-07-30T23:21:06.269Z,2.70
2017-07-30T23:23:40.801Z,2.07
2017-07-30T23:26:15.582Z,2.20
2017-07-30T23:28:49.592Z,2.13
2017-07-30T23:31:24.117Z,2.00
2017-07-30T23:33:58.678Z,2.00
2017-07-30T23:36:33.392Z,1.70
2017-07-30T23:39:08.227Z,2.80
2017-07-30T23:41:42.102Z,2.20
2017-07-30T23:44:16.678Z,2.20
2017-07-30T23:46:50.559Z,2.13
2017-07-30T23:49:25.109Z,2.10
2017-07-30T23:51:58.961Z,1.90
2017-07-30T23:54:33.518Z,2.30
2017-07-30T23:57:07.382Z,1.90
2017-07-30T23:59:41.938Z,2.20
